sensor_id;sensor_type;location;lat;lon;timestamp;temperature;humidity
48936;DHT22;34745;52.276;10.528;2023-07-09T00:00:58;22.70;1.00
48936;DHT22;34745;52.276;10.528;2023-07-09T00:03:25;22.70;1.00
48936;DHT22;34745;52.276;10.528;2023-07-09T00:05:52;22.70;1.00
48936;DHT22;34745;52.276;10.528;2023-07-09T00:08:25;22.80;1.00
48936;DHT22;34745;52.276;10.528;2023-07-09T00:10:55;22.70;1.00
48936;DHT22;34745;52.276;10.528;2023-07-09T00:13:25;22.80;1.00
48936;DHT22;34745;52.276;10.528;2023-07-09T00:15:53;22.80;1.00
48936;DHT22;34745;52.276;10.528;2023-07-09T00:18:21;22.80;1.00
48936;DHT22;34745;52.276;10.528;2023-07-09T00:20:49;22.80;1.00
48936;DHT22;34745;52.276;10.528;2023-07-09T00:23:16;22.70;1.00
48936;DHT22;34745;52.276;10.528;2023-07-09T00:25:46;22.70;1.00
48936;DHT22;34745;52.276;10.528;2023-07-09T00:28:14;22.60;1.00
48936;DHT22;34745;52.276;10.528;2023-07-09T00:30:44;22.70;1.00
48936;DHT22;34745;52.276;10.528;2023-07-09T00:33:11;22.70;1.00
48936;DHT22;34745;52.276;10.528;2023-07-09T00:35:41;22.70;1.00
48936;DHT22;34745;52.276;10.528;2023-07-09T00:38:13;22.70;1.00
48936;DHT22;34745;52.276;10.528;2023-07-09T00:40:46;22.60;1.00
48936;DHT22;34745;52.276;10.528;2023-07-09T00:43:15;22.60;1.00
48936;DHT22;34745;52.276;10.528;2023-07-09T00:45:45;22.50;1.00
48936;DHT22;34745;52.276;10.528;2023-07-09T00:48:14;22.40;1.00
48936;DHT22;34745;52.276;10.528;2023-07-09T00:50:47;22.40;1.00
48936;DHT22;34745;52.276;10.528;2023-07-09T00:53:20;22.30;1.00
48936;DHT22;34745;52.276;10.528;2023-07-09T00:55:52;22.30;1.00
48936;DHT22;34745;52.276;10.528;2023-07-09T00:58:22;22.40;1.00
48936;DHT22;34745;52.276;10.528;2023-07-09T01:01:00;22.40;1.00
48936;DHT22;34745;52.276;10.528;2023-07-09T01:03:35;22.40;1.00
48936;DHT22;34745;52.276;10.528;2023-07-09T01:06:03;22.30;1.00
48936;DHT22;34745;52.276;10.528;2023-07-09T01:08:34;22.20;1.00
48936;DHT22;34745;52.276;10.528;2023-07-09T01:11:02;22.20;1.00
48936;DHT22;34745;52.276;10.528;2023-07-09T01:13:30;22.20;1.00
48936;DHT22;34745;52.276;10.528;2023-07-09T01:16:00;22.20;1.00
48936;DHT22;34745;52.276;10.528;2023-07-09T01:18:28;22.20;1.00
48936;DHT22;34745;52.276;10.528;2023-07-09T01:21:02;22.20;1.00
48936;DHT22;34745;52.276;10.528;2023-07-09T01:23:30;22.20;1.00
48936;DHT22;34745;52.276;10.528;2023-07-09T01:25:57;22.20;1.00
48936;DHT22;34745;52.276;10.528;2023-07-09T01:28:25;22.10;1.00
48936;DHT22;34745;52.276;10.528;2023-07-09T01:30:51;22.10;1.00
48936;DHT22;34745;52.276;10.528;2023-07-09T01:33:21;22.20;1.00
48936;DHT22;34745;52.276;10.528;2023-07-09T01:35:49;22.10;1.00
48936;DHT22;34745;52.276;10.528;2023-07-09T01:38:18;22.00;1.00
48936;DHT22;34745;52.276;10.528;2023-07-09T01:40:47;22.00;1.00
48936;DHT22;34745;52.276;10.528;2023-07-09T01:43:14;21.90;1.00
48936;DHT22;34745;52.276;10.528;2023-07-09T01:45:41;21.80;1.00
48936;DHT22;34745;52.276;10.528;2023-07-09T01:48:08;21.80;1.00
48936;DHT22;34745;52.276;10.528;2023-07-09T01:50:41;21.80;1.00
48936;DHT22;34745;52.276;10.528;2023-07-09T01:53:11;21.80;1.00
48936;DHT22;34745;52.276;10.528;2023-07-09T01:55:39;21.80;1.00
48936;DHT22;34745;52.276;10.528;2023-07-09T01:58:06;21.80;1.00
48936;DHT22;34745;52.276;10.528;2023-07-09T02:00:35;21.70;1.00
48936;DHT22;34745;52.276;10.528;2023-07-09T02:03:02;21.60;1.00
48936;DHT22;34745;52.276;10.528;2023-07-09T02:05:31;21.60;1.00
48936;DHT22;34745;52.276;10.528;2023-07-09T02:07:59;21.50;1.00
48936;DHT22;34745;52.276;10.528;2023-07-09T02:10:26;21.50;1.00
48936;DHT22;34745;52.276;10.528;2023-07-09T02:12:55;21.40;1.00
48936;DHT22;34745;52.276;10.528;2023-07-09T02:15:22;21.30;1.00
48936;DHT22;34745;52.276;10.528;2023-07-09T02:17:49;21.30;1.00
48936;DHT22;34745;52.276;10.528;2023-07-09T02:20:16;21.30;1.00
48936;DHT22;34745;52.276;10.528;2023-07-09T02:22:43;21.30;1.00
48936;DHT22;34745;52.276;10.528;2023-07-09T02:25:11;21.30;1.00
48936;DHT22;34745;52.276;10.528;2023-07-09T02:27:39;21.30;1.00
48936;DHT22;34745;52.276;10.528;2023-07-09T02:30:08;21.30;1.00
48936;DHT22;34745;52.276;10.528;2023-07-09T02:32:35;21.30;1.00
48936;DHT22;34745;52.276;10.528;2023-07-09T02:35:03;21.40;1.00
48936;DHT22;34745;52.276;10.528;2023-07-09T02:37:31;21.40;1.00
48936;DHT22;34745;52.276;10.528;2023-07-09T02:39:59;21.40;1.00
48936;DHT22;34745;52.276;10.528;2023-07-09T02:42:26;22.00;1.00
48936;DHT22;34745;52.276;10.528;2023-07-09T02:44:53;21.30;1.00
48936;DHT22;34745;52.276;10.528;2023-07-09T02:47:22;21.20;1.00
48936;DHT22;34745;52.276;10.528;2023-07-09T02:49:49;21.20;1.00
48936;DHT22;34745;52.276;10.528;2023-07-09T02:52:16;21.10;1.00
48936;DHT22;34745;52.276;10.528;2023-07-09T02:54:43;21.20;1.00
48936;DHT22;34745;52.276;10.528;2023-07-09T02:57:11;21.20;1.00
48936;DHT22;34745;52.276;10.528;2023-07-09T02:59:38;21.10;1.00
48936;DHT22;34745;52.276;10.528;2023-07-09T03:02:05;21.10;1.00
48936;DHT22;34745;52.276;10.528;2023-07-09T03:04:34;21.10;1.00
48936;DHT22;34745;52.276;10.528;2023-07-09T03:07:01;21.00;1.00
48936;DHT22;34745;52.276;10.528;2023-07-09T03:09:28;21.10;1.00
48936;DHT22;34745;52.276;10.528;2023-07-09T03:11:56;21.00;1.00
48936;DHT22;34745;52.276;10.528;2023-07-09T03:14:23;21.10;1.00
48936;DHT22;34745;52.276;10.528;2023-07-09T03:16:50;21.00;1.00
48936;DHT22;34745;52.276;10.528;2023-07-09T03:19:19;20.90;1.00
48936;DHT22;34745;52.276;10.528;2023-07-09T03:21:47;20.90;1.00
48936;DHT22;34745;52.276;10.528;2023-07-09T03:24:14;20.90;1.00
48936;DHT22;34745;52.276;10.528;2023-07-09T03:26:45;20.90;1.00
48936;DHT22;34745;52.276;10.528;2023-07-09T03:29:13;20.90;1.00
48936;DHT22;34745;52.276;10.528;2023-07-09T03:31:40;20.90;1.00
48936;DHT22;34745;52.276;10.528;2023-07-09T03:34:07;20.90;1.00
48936;DHT22;34745;52.276;10.528;2023-07-09T03:36:34;20.90;1.00
48936;DHT22;34745;52.276;10.528;2023-07-09T03:39:06;20.90;1.00
48936;DHT22;34745;52.276;10.528;2023-07-09T03:41:33;20.90;1.00
48936;DHT22;34745;52.276;10.528;2023-07-09T03:44:01;20.90;1.00
48936;DHT22;34745;52.276;10.528;2023-07-09T03:46:27;20.90;1.00
48936;DHT22;34745;52.276;10.528;2023-07-09T03:48:55;20.90;1.00
48936;DHT22;34745;52.276;10.528;2023-07-09T03:51:22;20.90;1.00
48936;DHT22;34745;52.276;10.528;2023-07-09T03:53:49;20.80;1.00
48936;DHT22;34745;52.276;10.528;2023-07-09T03:56:17;20.70;1.00
48936;DHT22;34745;52.276;10.528;2023-07-09T03:58:44;20.70;1.00
48936;DHT22;34745;52.276;10.528;2023-07-09T04:01:12;20.80;1.00
48936;DHT22;34745;52.276;10.528;2023-07-09T04:03:40;20.80;1.00
48936;DHT22;34745;52.276;10.528;2023-07-09T04:06:06;20.80;1.00
48936;DHT22;34745;52.276;10.528;2023-07-09T04:08:34;20.80;1.00
48936;DHT22;34745;52.276;10.528;2023-07-09T04:11:02;20.90;1.00
48936;DHT22;34745;52.276;10.528;2023-07-09T04:13:31;20.90;1.00
48936;DHT22;34745;52.276;10.528;2023-07-09T04:15:58;21.00;1.00
48936;DHT22;34745;52.276;10.528;2023-07-09T04:18:25;21.00;1.00
48936;DHT22;34745;52.276;10.528;2023-07-09T04:20:52;21.10;1.00
48936;DHT22;34745;52.276;10.528;2023-07-09T04:23:20;21.10;1.00
48936;DHT22;34745;52.276;10.528;2023-07-09T04:25:47;21.20;1.00
48936;DHT22;34745;52.276;10.528;2023-07-09T04:28:14;21.20;1.00
48936;DHT22;34745;52.276;10.528;2023-07-09T04:30:47;21.20;1.00
48936;DHT22;34745;52.276;10.528;2023-07-09T04:33:15;21.30;1.00
48936;DHT22;34745;52.276;10.528;2023-07-09T04:35:44;21.30;1.00
48936;DHT22;34745;52.276;10.528;2023-07-09T04:38:12;21.30;1.00
48936;DHT22;34745;52.276;10.528;2023-07-09T04:40:39;21.30;1.00
48936;DHT22;34745;52.276;10.528;2023-07-09T04:43:06;21.30;1.00
48936;DHT22;34745;52.276;10.528;2023-07-09T04:45:33;21.30;1.00
48936;DHT22;34745;52.276;10.528;2023-07-09T04:48:02;21.40;1.00
48936;DHT22;34745;52.276;10.528;2023-07-09T04:50:29;21.40;1.00
48936;DHT22;34745;52.276;10.528;2023-07-09T04:52:56;21.50;1.00
48936;DHT22;34745;52.276;10.528;2023-07-09T04:55:23;21.50;1.00
48936;DHT22;34745;52.276;10.528;2023-07-09T04:57:50;21.50;1.00
48936;DHT22;34745;52.276;10.528;2023-07-09T05:00:18;21.60;1.00
48936;DHT22;34745;52.276;10.528;2023-07-09T05:02:45;21.70;1.00
48936;DHT22;34745;52.276;10.528;2023-07-09T05:05:13;21.80;1.00
48936;DHT22;34745;52.276;10.528;2023-07-09T05:07:41;21.80;1.00
48936;DHT22;34745;52.276;10.528;2023-07-09T05:10:09;21.90;1.00
48936;DHT22;34745;52.276;10.528;2023-07-09T05:12:47;21.90;1.00
48936;DHT22;34745;52.276;10.528;2023-07-09T05:15:15;21.80;1.00
48936;DHT22;34745;52.276;10.528;2023-07-09T05:17:42;21.90;1.00
48936;DHT22;34745;52.276;10.528;2023-07-09T05:20:10;21.90;1.00
48936;DHT22;34745;52.276;10.528;2023-07-09T05:22:38;21.90;1.00
48936;DHT22;34745;52.276;10.528;2023-07-09T05:25:05;22.00;1.00
48936;DHT22;34745;52.276;10.528;2023-07-09T05:27:32;22.00;1.00
48936;DHT22;34745;52.276;10.528;2023-07-09T05:29:59;22.00;1.00
48936;DHT22;34745;52.276;10.528;2023-07-09T05:32:27;22.00;1.00
48936;DHT22;34745;52.276;10.528;2023-07-09T05:34:54;22.10;1.00
48936;DHT22;34745;52.276;10.528;2023-07-09T05:37:22;22.00;1.00
48936;DHT22;34745;52.276;10.528;2023-07-09T05:39:50;22.00;1.00
48936;DHT22;34745;52.276;10.528;2023-07-09T05:42:17;22.00;1.00
48936;DHT22;34745;52.276;10.528;2023-07-09T05:44:44;21.90;1.00
48936;DHT22;34745;52.276;10.528;2023-07-09T05:47:11;21.80;1.00
48936;DHT22;34745;52.276;10.528;2023-07-09T05:49:38;21.90;1.00
48936;DHT22;34745;52.276;10.528;2023-07-09T05:52:06;22.00;1.00
48936;DHT22;34745;52.276;10.528;2023-07-09T05:54:33;22.10;1.00
48936;DHT22;34745;52.276;10.528;2023-07-09T05:57:01;22.20;1.00
48936;DHT22;34745;52.276;10.528;2023-07-09T05:59:28;22.30;1.00
48936;DHT22;34745;52.276;10.528;2023-07-09T06:01:56;22.50;1.00
48936;DHT22;34745;52.276;10.528;2023-07-09T06:04:23;22.50;1.00
48936;DHT22;34745;52.276;10.528;2023-07-09T06:06:52;22.70;1.00
48936;DHT22;34745;52.276;10.528;2023-07-09T06:09:19;22.70;1.00
48936;DHT22;34745;52.276;10.528;2023-07-09T06:11:46;22.80;1.00
48936;DHT22;34745;52.276;10.528;2023-07-09T06:14:14;22.80;1.00
48936;DHT22;34745;52.276;10.528;2023-07-09T06:16:43;22.80;1.00
48936;DHT22;34745;52.276;10.528;2023-07-09T06:19:11;22.90;1.00
48936;DHT22;34745;52.276;10.528;2023-07-09T06:21:39;23.10;1.00
48936;DHT22;34745;52.276;10.528;2023-07-09T06:24:06;23.20;1.00
48936;DHT22;34745;52.276;10.528;2023-07-09T06:26:33;23.30;1.00
48936;DHT22;34745;52.276;10.528;2023-07-09T06:29:01;23.30;1.00
48936;DHT22;34745;52.276;10.528;2023-07-09T06:31:29;23.40;1.00
48936;DHT22;34745;52.276;10.528;2023-07-09T06:33:56;23.40;1.00
48936;DHT22;34745;52.276;10.528;2023-07-09T06:36:23;23.50;1.00
48936;DHT22;34745;52.276;10.528;2023-07-09T06:38:51;23.60;1.00
48936;DHT22;34745;52.276;10.528;2023-07-09T06:41:17;23.60;1.00
48936;DHT22;34745;52.276;10.528;2023-07-09T06:43:44;23.60;1.00
48936;DHT22;34745;52.276;10.528;2023-07-09T06:46:13;23.60;1.00
48936;DHT22;34745;52.276;10.528;2023-07-09T06:48:42;23.60;1.00
48936;DHT22;34745;52.276;10.528;2023-07-09T06:51:09;23.60;1.00
48936;DHT22;34745;52.276;10.528;2023-07-09T06:53:36;23.90;1.00
48936;DHT22;34745;52.276;10.528;2023-07-09T06:56:03;23.80;1.00
48936;DHT22;34745;52.276;10.528;2023-07-09T06:58:32;23.90;1.00
48936;DHT22;34745;52.276;10.528;2023-07-09T07:01:01;24.00;1.00
48936;DHT22;34745;52.276;10.528;2023-07-09T07:03:31;23.70;1.00
48936;DHT22;34745;52.276;10.528;2023-07-09T07:06:01;24.10;1.00
48936;DHT22;34745;52.276;10.528;2023-07-09T07:08:28;24.20;1.00
48936;DHT22;34745;52.276;10.528;2023-07-09T07:10:57;24.20;1.00
48936;DHT22;34745;52.276;10.528;2023-07-09T07:13:29;24.40;1.00
48936;DHT22;34745;52.276;10.528;2023-07-09T07:15:56;24.50;1.00
48936;DHT22;34745;52.276;10.528;2023-07-09T07:18:24;24.50;1.00
48936;DHT22;34745;52.276;10.528;2023-07-09T07:20:51;24.60;1.00
48936;DHT22;34745;52.276;10.528;2023-07-09T07:23:20;24.70;1.00
48936;DHT22;34745;52.276;10.528;2023-07-09T07:25:47;24.70;1.00
48936;DHT22;34745;52.276;10.528;2023-07-09T07:28:15;24.70;1.00
48936;DHT22;34745;52.276;10.528;2023-07-09T07:30:44;24.80;1.00
48936;DHT22;34745;52.276;10.528;2023-07-09T07:33:13;24.70;1.00
48936;DHT22;34745;52.276;10.528;2023-07-09T07:35:40;24.70;1.00
48936;DHT22;34745;52.276;10.528;2023-07-09T07:38:29;24.70;1.00
48936;DHT22;34745;52.276;10.528;2023-07-09T07:40:56;24.80;1.00
48936;DHT22;34745;52.276;10.528;2023-07-09T07:43:23;24.80;1.00
48936;DHT22;34745;52.276;10.528;2023-07-09T07:45:50;24.80;1.00
48936;DHT22;34745;52.276;10.528;2023-07-09T07:48:17;24.80;1.00
48936;DHT22;34745;52.276;10.528;2023-07-09T07:50:45;24.90;1.00
48936;DHT22;34745;52.276;10.528;2023-07-09T07:53:12;24.90;1.00
48936;DHT22;34745;52.276;10.528;2023-07-09T07:55:42;24.90;1.00
48936;DHT22;34745;52.276;10.528;2023-07-09T07:58:11;25.00;1.00
48936;DHT22;34745;52.276;10.528;2023-07-09T08:00:38;25.00;1.00
48936;DHT22;34745;52.276;10.528;2023-07-09T08:03:07;25.00;1.00
48936;DHT22;34745;52.276;10.528;2023-07-09T08:05:34;25.00;1.00
48936;DHT22;34745;52.276;10.528;2023-07-09T08:08:01;25.00;1.00
48936;DHT22;34745;52.276;10.528;2023-07-09T08:10:28;25.10;1.00
48936;DHT22;34745;52.276;10.528;2023-07-09T08:12:56;25.20;1.00
48936;DHT22;34745;52.276;10.528;2023-07-09T08:15:24;25.30;1.00
48936;DHT22;34745;52.276;10.528;2023-07-09T08:17:51;25.30;1.00
48936;DHT22;34745;52.276;10.528;2023-07-09T08:20:19;25.40;1.00
48936;DHT22;34745;52.276;10.528;2023-07-09T08:22:46;25.50;1.00
48936;DHT22;34745;52.276;10.528;2023-07-09T08:25:13;25.60;1.00
48936;DHT22;34745;52.276;10.528;2023-07-09T08:27:40;25.70;1.00
48936;DHT22;34745;52.276;10.528;2023-07-09T08:30:10;25.70;1.00
48936;DHT22;34745;52.276;10.528;2023-07-09T08:32:37;25.80;1.00
48936;DHT22;34745;52.276;10.528;2023-07-09T08:35:04;25.80;1.00
48936;DHT22;34745;52.276;10.528;2023-07-09T08:37:51;25.90;1.00
48936;DHT22;34745;52.276;10.528;2023-07-09T08:40:19;25.90;1.00
48936;DHT22;34745;52.276;10.528;2023-07-09T08:42:49;26.00;1.00
48936;DHT22;34745;52.276;10.528;2023-07-09T08:45:35;26.00;1.00
48936;DHT22;34745;52.276;10.528;2023-07-09T08:48:10;26.10;1.00
48936;DHT22;34745;52.276;10.528;2023-07-09T08:50:43;26.10;1.00
48936;DHT22;34745;52.276;10.528;2023-07-09T08:53:17;26.20;1.00
48936;DHT22;34745;52.276;10.528;2023-07-09T08:55:46;26.20;1.00
48936;DHT22;34745;52.276;10.528;2023-07-09T08:58:17;26.20;1.00
48936;DHT22;34745;52.276;10.528;2023-07-09T09:00:53;26.30;1.00
48936;DHT22;34745;52.276;10.528;2023-07-09T09:03:29;26.30;1.00
48936;DHT22;34745;52.276;10.528;2023-07-09T09:05:58;26.50;1.00
48936;DHT22;34745;52.276;10.528;2023-07-09T09:08:40;26.50;1.00
48936;DHT22;34745;52.276;10.528;2023-07-09T09:11:16;26.60;1.00
48936;DHT22;34745;52.276;10.528;2023-07-09T09:13:45;26.70;1.00
48936;DHT22;34745;52.276;10.528;2023-07-09T09:16:22;26.70;1.00
48936;DHT22;34745;52.276;10.528;2023-07-09T09:18:55;26.80;1.00
48936;DHT22;34745;52.276;10.528;2023-07-09T09:21:26;26.80;1.00
48936;DHT22;34745;52.276;10.528;2023-07-09T09:23:58;26.90;1.00
48936;DHT22;34745;52.276;10.528;2023-07-09T09:26:31;27.00;1.00
48936;DHT22;34745;52.276;10.528;2023-07-09T09:28:59;27.10;1.00
48936;DHT22;34745;52.276;10.528;2023-07-09T09:31:28;27.20;1.00
48936;DHT22;34745;52.276;10.528;2023-07-09T09:33:56;27.30;1.00
48936;DHT22;34745;52.276;10.528;2023-07-09T09:36:26;27.30;1.00
48936;DHT22;34745;52.276;10.528;2023-07-09T09:38:53;27.40;1.00
48936;DHT22;34745;52.276;10.528;2023-07-09T09:41:22;27.50;1.00
48936;DHT22;34745;52.276;10.528;2023-07-09T09:43:52;27.60;1.00
48936;DHT22;34745;52.276;10.528;2023-07-09T09:46:21;27.60;1.00
48936;DHT22;34745;52.276;10.528;2023-07-09T09:48:54;27.70;1.00
48936;DHT22;34745;52.276;10.528;2023-07-09T09:51:23;27.80;1.00
48936;DHT22;34745;52.276;10.528;2023-07-09T09:53:51;27.90;99.90
48936;DHT22;34745;52.276;10.528;2023-07-09T09:56:25;28.00;99.90
48936;DHT22;34745;52.276;10.528;2023-07-09T09:58:55;28.20;1.00
48936;DHT22;34745;52.276;10.528;2023-07-09T10:01:27;28.20;99.90
48936;DHT22;34745;52.276;10.528;2023-07-09T10:03:59;28.20;99.90
48936;DHT22;34745;52.276;10.528;2023-07-09T10:06:34;28.20;99.90
48936;DHT22;34745;52.276;10.528;2023-07-09T10:09:08;28.30;99.90
48936;DHT22;34745;52.276;10.528;2023-07-09T10:11:45;28.40;99.90
48936;DHT22;34745;52.276;10.528;2023-07-09T10:14:26;28.50;99.90
48936;DHT22;34745;52.276;10.528;2023-07-09T10:17:00;28.50;99.90
48936;DHT22;34745;52.276;10.528;2023-07-09T10:19:37;28.50;99.90
48936;DHT22;34745;52.276;10.528;2023-07-09T10:22:09;28.60;99.90
48936;DHT22;34745;52.276;10.528;2023-07-09T10:24:48;28.60;99.90
48936;DHT22;34745;52.276;10.528;2023-07-09T10:27:22;28.70;99.90
48936;DHT22;34745;52.276;10.528;2023-07-09T10:30:08;28.90;99.90
48936;DHT22;34745;52.276;10.528;2023-07-09T10:32:57;29.00;99.90
48936;DHT22;34745;52.276;10.528;2023-07-09T10:35:32;29.00;99.90
48936;DHT22;34745;52.276;10.528;2023-07-09T10:38:29;29.10;99.90
48936;DHT22;34745;52.276;10.528;2023-07-09T10:41:02;29.20;99.90
48936;DHT22;34745;52.276;10.528;2023-07-09T10:43:56;29.40;99.90
48936;DHT22;34745;52.276;10.528;2023-07-09T10:46:25;29.40;99.90
48936;DHT22;34745;52.276;10.528;2023-07-09T10:48:54;29.60;99.90
48936;DHT22;34745;52.276;10.528;2023-07-09T10:51:27;29.70;99.90
48936;DHT22;34745;52.276;10.528;2023-07-09T10:53:58;29.70;99.90
48936;DHT22;34745;52.276;10.528;2023-07-09T10:56:28;29.80;99.90
48936;DHT22;34745;52.276;10.528;2023-07-09T10:59:03;29.90;99.90
48936;DHT22;34745;52.276;10.528;2023-07-09T11:01:36;29.90;99.90
48936;DHT22;34745;52.276;10.528;2023-07-09T11:04:09;30.10;99.90
48936;DHT22;34745;52.276;10.528;2023-07-09T11:06:43;30.30;99.90
48936;DHT22;34745;52.276;10.528;2023-07-09T11:09:25;30.30;99.90
48936;DHT22;34745;52.276;10.528;2023-07-09T11:11:55;30.30;99.90
48936;DHT22;34745;52.276;10.528;2023-07-09T11:14:31;30.30;99.90
48936;DHT22;34745;52.276;10.528;2023-07-09T11:17:01;30.40;99.90
48936;DHT22;34745;52.276;10.528;2023-07-09T11:19:29;30.40;99.90
48936;DHT22;34745;52.276;10.528;2023-07-09T11:22:04;30.40;99.90
48936;DHT22;34745;52.276;10.528;2023-07-09T11:24:34;30.50;99.90
48936;DHT22;34745;52.276;10.528;2023-07-09T11:27:02;30.50;99.90
48936;DHT22;34745;52.276;10.528;2023-07-09T11:29:29;30.60;99.90
48936;DHT22;34745;52.276;10.528;2023-07-09T11:32:07;30.60;99.90
48936;DHT22;34745;52.276;10.528;2023-07-09T11:34:45;30.70;99.90
48936;DHT22;34745;52.276;10.528;2023-07-09T11:37:14;30.90;99.90
48936;DHT22;34745;52.276;10.528;2023-07-09T11:39:44;31.00;99.90
48936;DHT22;34745;52.276;10.528;2023-07-09T11:42:29;31.00;99.90
48936;DHT22;34745;52.276;10.528;2023-07-09T11:45:04;31.00;99.90
48936;DHT22;34745;52.276;10.528;2023-07-09T11:47:36;31.10;99.90
48936;DHT22;34745;52.276;10.528;2023-07-09T11:50:05;31.20;99.90
48936;DHT22;34745;52.276;10.528;2023-07-09T11:52:39;31.30;99.90
48936;DHT22;34745;52.276;10.528;2023-07-09T11:55:21;31.40;99.90
48936;DHT22;34745;52.276;10.528;2023-07-09T11:57:52;31.50;99.90
48936;DHT22;34745;52.276;10.528;2023-07-09T12:00:20;31.60;99.90
48936;DHT22;34745;52.276;10.528;2023-07-09T12:02:47;31.70;99.90
48936;DHT22;34745;52.276;10.528;2023-07-09T12:05:19;31.80;99.90
48936;DHT22;34745;52.276;10.528;2023-07-09T12:07:48;31.80;99.90
48936;DHT22;34745;52.276;10.528;2023-07-09T12:10:20;31.90;99.90
48936;DHT22;34745;52.276;10.528;2023-07-09T12:12:47;31.90;99.90
48936;DHT22;34745;52.276;10.528;2023-07-09T12:15:19;31.90;99.90
48936;DHT22;34745;52.276;10.528;2023-07-09T12:17:55;32.00;99.90
48936;DHT22;34745;52.276;10.528;2023-07-09T12:20:23;32.10;99.90
48936;DHT22;34745;52.276;10.528;2023-07-09T12:22:51;32.00;99.90
48936;DHT22;34745;52.276;10.528;2023-07-09T12:25:22;32.10;99.90
48936;DHT22;34745;52.276;10.528;2023-07-09T12:27:50;32.20;99.90
48936;DHT22;34745;52.276;10.528;2023-07-09T12:30:17;32.40;99.90
48936;DHT22;34745;52.276;10.528;2023-07-09T12:32:45;32.40;99.90
48936;DHT22;34745;52.276;10.528;2023-07-09T12:35:14;32.40;99.90
48936;DHT22;34745;52.276;10.528;2023-07-09T12:37:42;32.50;99.90
48936;DHT22;34745;52.276;10.528;2023-07-09T12:40:15;32.50;99.90
48936;DHT22;34745;52.276;10.528;2023-07-09T12:42:43;32.60;99.90
48936;DHT22;34745;52.276;10.528;2023-07-09T12:45:16;32.60;99.90
48936;DHT22;34745;52.276;10.528;2023-07-09T12:47:47;32.60;99.90
48936;DHT22;34745;52.276;10.528;2023-07-09T12:50:30;32.60;99.90
48936;DHT22;34745;52.276;10.528;2023-07-09T12:53:02;32.70;99.90
48936;DHT22;34745;52.276;10.528;2023-07-09T12:55:39;32.80;99.90
48936;DHT22;34745;52.276;10.528;2023-07-09T12:58:09;32.90;99.90
48936;DHT22;34745;52.276;10.528;2023-07-09T13:00:38;33.00;99.90
48936;DHT22;34745;52.276;10.528;2023-07-09T13:03:13;33.00;99.90
48936;DHT22;34745;52.276;10.528;2023-07-09T13:05:51;33.00;99.90
48936;DHT22;34745;52.276;10.528;2023-07-09T13:08:19;33.00;99.90
48936;DHT22;34745;52.276;10.528;2023-07-09T13:10:47;33.20;99.90
48936;DHT22;34745;52.276;10.528;2023-07-09T13:13:19;33.20;99.90
48936;DHT22;34745;52.276;10.528;2023-07-09T13:15:49;33.30;99.90
48936;DHT22;34745;52.276;10.528;2023-07-09T13:18:17;33.40;99.90
48936;DHT22;34745;52.276;10.528;2023-07-09T13:20:46;33.60;99.90
48936;DHT22;34745;52.276;10.528;2023-07-09T13:23:17;33.70;99.90
48936;DHT22;34745;52.276;10.528;2023-07-09T13:25:47;33.90;99.90
48936;DHT22;34745;52.276;10.528;2023-07-09T13:28:17;34.10;99.90
48936;DHT22;34745;52.276;10.528;2023-07-09T13:30:45;34.10;99.90
48936;DHT22;34745;52.276;10.528;2023-07-09T13:33:12;34.30;99.90
48936;DHT22;34745;52.276;10.528;2023-07-09T13:35:39;34.20;99.90
48936;DHT22;34745;52.276;10.528;2023-07-09T13:38:12;34.40;99.90
48936;DHT22;34745;52.276;10.528;2023-07-09T13:40:41;34.60;99.90
48936;DHT22;34745;52.276;10.528;2023-07-09T13:43:12;34.70;99.90
48936;DHT22;34745;52.276;10.528;2023-07-09T13:45:40;34.80;99.90
48936;DHT22;34745;52.276;10.528;2023-07-09T13:48:13;34.80;99.90
48936;DHT22;34745;52.276;10.528;2023-07-09T13:50:42;34.90;99.90
48936;DHT22;34745;52.276;10.528;2023-07-09T13:53:17;35.00;99.90
48936;DHT22;34745;52.276;10.528;2023-07-09T13:55:45;35.20;99.90
48936;DHT22;34745;52.276;10.528;2023-07-09T13:58:16;35.30;99.90
48936;DHT22;34745;52.276;10.528;2023-07-09T14:00:44;35.30;99.90
48936;DHT22;34745;52.276;10.528;2023-07-09T14:03:17;35.20;99.90
48936;DHT22;34745;52.276;10.528;2023-07-09T14:05:46;35.30;99.90
48936;DHT22;34745;52.276;10.528;2023-07-09T14:08:13;35.40;99.90
48936;DHT22;34745;52.276;10.528;2023-07-09T14:10:42;35.50;99.90
48936;DHT22;34745;52.276;10.528;2023-07-09T14:13:15;35.40;99.90
48936;DHT22;34745;52.276;10.528;2023-07-09T14:15:43;35.40;99.90
48936;DHT22;34745;52.276;10.528;2023-07-09T14:18:13;35.40;99.90
48936;DHT22;34745;52.276;10.528;2023-07-09T14:20:40;35.40;99.90
48936;DHT22;34745;52.276;10.528;2023-07-09T14:23:10;35.60;99.90
48936;DHT22;34745;52.276;10.528;2023-07-09T14:25:37;35.70;99.90
48936;DHT22;34745;52.276;10.528;2023-07-09T14:28:10;35.60;99.90
48936;DHT22;34745;52.276;10.528;2023-07-09T14:30:39;35.70;99.90
48936;DHT22;34745;52.276;10.528;2023-07-09T14:33:12;35.80;99.90
48936;DHT22;34745;52.276;10.528;2023-07-09T14:35:40;35.90;99.90
48936;DHT22;34745;52.276;10.528;2023-07-09T14:38:15;36.00;99.90
48936;DHT22;34745;52.276;10.528;2023-07-09T14:40:44;36.10;99.90
48936;DHT22;34745;52.276;10.528;2023-07-09T14:43:12;36.20;99.90
48936;DHT22;34745;52.276;10.528;2023-07-09T14:45:41;36.30;99.90
48936;DHT22;34745;52.276;10.528;2023-07-09T14:48:10;36.40;99.90
48936;DHT22;34745;52.276;10.528;2023-07-09T14:50:37;36.50;99.90
48936;DHT22;34745;52.276;10.528;2023-07-09T14:53:09;36.50;99.90
48936;DHT22;34745;52.276;10.528;2023-07-09T14:55:37;36.60;99.90
48936;DHT22;34745;52.276;10.528;2023-07-09T14:58:13;36.50;99.90
48936;DHT22;34745;52.276;10.528;2023-07-09T15:00:42;36.40;99.90
48936;DHT22;34745;52.276;10.528;2023-07-09T15:03:14;36.30;99.90
48936;DHT22;34745;52.276;10.528;2023-07-09T15:05:42;36.40;99.90
48936;DHT22;34745;52.276;10.528;2023-07-09T15:08:12;36.60;99.90
48936;DHT22;34745;52.276;10.528;2023-07-09T15:10:40;36.70;99.90
48936;DHT22;34745;52.276;10.528;2023-07-09T15:13:15;36.70;99.90
48936;DHT22;34745;52.276;10.528;2023-07-09T15:15:44;36.80;99.90
48936;DHT22;34745;52.276;10.528;2023-07-09T15:18:13;36.80;99.90
48936;DHT22;34745;52.276;10.528;2023-07-09T15:20:45;36.80;99.90
48936;DHT22;34745;52.276;10.528;2023-07-09T15:23:17;36.80;99.90
48936;DHT22;34745;52.276;10.528;2023-07-09T15:25:45;36.90;99.90
48936;DHT22;34745;52.276;10.528;2023-07-09T15:28:15;37.00;99.90
48936;DHT22;34745;52.276;10.528;2023-07-09T15:30:44;37.00;99.90
48936;DHT22;34745;52.276;10.528;2023-07-09T15:33:14;37.10;99.90
48936;DHT22;34745;52.276;10.528;2023-07-09T15:35:47;37.20;99.90
48936;DHT22;34745;52.276;10.528;2023-07-09T15:38:30;37.30;99.90
48936;DHT22;34745;52.276;10.528;2023-07-09T15:40:58;37.20;99.90